createdAt,value
2018-08-30T00:00:04.375Z,35.37
2018-08-30T00:02:39.731Z,35.33
2018-08-30T00:07:50.446Z,37.90
2018-08-30T00:10:21.920Z,37.83
2018-08-30T01:09:04.523Z,27.07
2018-08-30T01:11:32.729Z,27.50
2018-08-30T01:14:01.678Z,27.43
2018-08-30T01:16:29.724Z,27.90
2018-08-30T01:18:58.673Z,29.40
2018-08-30T01:21:27.789Z,28.47
2018-08-30T01:23:55.860Z,28.03
2018-08-30T01:26:24.047Z,29.03
2018-08-30T01:28:52.581Z,30.17
2018-08-30T01:31:21.042Z,29.60
2018-08-30T01:33:49.853Z,29.33
2018-08-30T01:36:19.010Z,29.93
2018-08-30T01:38:47.177Z,30.67
2018-08-30T01:41:16.548Z,28.50
2018-08-30T01:43:45.158Z,29.20
2018-08-30T01:46:13.013Z,29.00
2018-08-30T01:48:41.065Z,31.43
2018-08-30T01:51:09.745Z,32.07
2018-08-30T01:53:37.495Z,32.00
2018-08-30T01:56:05.633Z,32.97
2018-08-30T01:58:33.315Z,32.90
2018-08-30T02:01:01.277Z,33.13
2018-08-30T02:03:32.195Z,34.90
2018-08-30T02:06:01.099Z,35.83
2018-08-30T02:08:28.846Z,35.47
2018-08-30T02:10:56.830Z,36.03
2018-08-30T02:13:24.833Z,33.00
2018-08-30T02:15:53.395Z,35.33
2018-08-30T02:18:21.397Z,34.13
2018-08-30T02:20:49.318Z,34.33
2018-08-30T02:23:18.248Z,33.93
2018-08-30T02:25:46.071Z,32.93
2018-08-30T02:28:15.084Z,33.50
2018-08-30T02:54:39.992Z,31.00
2018-08-30T02:57:27.950Z,33.80
2018-08-30T03:00:21.438Z,33.77
2018-08-30T03:03:12.182Z,33.60
2018-08-30T03:05:56.764Z,33.27
2018-08-30T03:11:12.243Z,35.10
2018-08-30T03:14:29.078Z,33.13
2018-08-30T03:16:59.081Z,31.00
2018-08-30T03:43:32.481Z,26.97
2018-08-30T03:46:00.679Z,28.47
2018-08-30T03:48:28.363Z,28.07
2018-08-30T03:50:56.072Z,28.53
2018-08-30T03:53:23.978Z,28.23
2018-08-30T03:55:52.559Z,30.10
2018-08-30T03:58:20.592Z,29.40
2018-08-30T04:00:48.356Z,27.90
2018-08-30T04:03:16.862Z,26.17
2018-08-30T04:05:44.433Z,26.10
2018-08-30T04:08:12.477Z,26.13
2018-08-30T04:10:40.210Z,27.43
2018-08-30T04:13:07.697Z,26.80
2018-08-30T04:15:35.307Z,23.60
2018-08-30T04:18:02.700Z,23.33
2018-08-30T04:20:30.275Z,21.47
2018-08-30T04:22:57.796Z,21.33
2018-08-30T04:25:25.207Z,21.53
2018-08-30T04:27:52.840Z,18.87
2018-08-30T04:30:20.317Z,17.57
2018-08-30T04:32:47.824Z,18.77
2018-08-30T04:35:15.378Z,17.30
2018-08-30T04:37:42.863Z,17.33
2018-08-30T04:40:10.572Z,18.30
2018-08-30T04:42:38.041Z,16.30
2018-08-30T04:45:06.237Z,15.23
2018-08-30T04:47:33.729Z,14.80
2018-08-30T04:50:01.238Z,15.17
2018-08-30T04:52:28.700Z,15.43
2018-08-30T04:54:56.229Z,16.50
2018-08-30T04:57:24.342Z,16.97
2018-08-30T04:59:51.782Z,17.93
2018-08-30T05:02:19.269Z,20.30
2018-08-30T05:04:46.733Z,21.03
2018-08-30T05:07:14.293Z,21.70
2018-08-30T05:09:42.695Z,21.93
2018-08-30T05:12:10.266Z,22.40
2018-08-30T05:14:37.652Z,22.23
2018-08-30T05:17:05.265Z,22.07
2018-08-30T05:19:32.706Z,22.27
2018-08-30T05:22:00.452Z,21.47
2018-08-30T05:24:28.035Z,23.10
2018-08-30T05:26:55.526Z,21.13
2018-08-30T05:29:23.020Z,21.70
2018-08-30T05:31:50.622Z,22.53
2018-08-30T05:34:18.039Z,20.73
2018-08-30T05:36:45.812Z,21.00
2018-08-30T05:39:13.292Z,20.17
2018-08-30T05:41:40.774Z,20.60
2018-08-30T05:44:08.275Z,18.53
2018-08-30T05:46:36.165Z,21.67
2018-08-30T05:49:03.535Z,21.23
2018-08-30T05:51:30.915Z,18.63
2018-08-30T05:53:58.261Z,20.07
2018-08-30T05:56:25.617Z,21.73
2018-08-30T05:58:53.097Z,20.80
2018-08-30T06:01:20.899Z,20.47
2018-08-30T06:03:48.587Z,19.60
2018-08-30T06:06:16.073Z,19.97
2018-08-30T06:08:43.611Z,19.70
2018-08-30T06:11:11.019Z,19.90
2018-08-30T06:13:38.404Z,19.53
2018-08-30T06:16:05.763Z,19.80
2018-08-30T06:18:33.154Z,20.40
2018-08-30T06:21:00.551Z,20.57
2018-08-30T06:23:27.917Z,20.57
2018-08-30T06:25:55.405Z,19.53
2018-08-30T06:28:22.864Z,20.90
2018-08-30T06:30:50.242Z,20.30
2018-08-30T06:33:17.833Z,21.33
2018-08-30T06:35:45.483Z,20.27
2018-08-30T06:38:13.038Z,20.13
2018-08-30T06:40:40.397Z,19.40
2018-08-30T06:43:08.551Z,20.57
2018-08-30T06:45:36.300Z,21.10
2018-08-30T06:48:03.724Z,19.47
2018-08-30T06:50:31.462Z,18.67
2018-08-30T06:52:59.112Z,19.90
2018-08-30T06:55:26.524Z,18.87
2018-08-30T06:57:53.946Z,19.23
2018-08-30T07:00:21.349Z,19.17
2018-08-30T07:02:48.957Z,19.53
2018-08-30T07:05:16.497Z,18.80
2018-08-30T07:07:43.928Z,18.20
2018-08-30T07:10:11.567Z,18.57
2018-08-30T07:12:39.059Z,19.13
2018-08-30T07:15:06.789Z,18.60
2018-08-30T07:17:34.232Z,19.03
2018-08-30T07:20:01.910Z,18.20
2018-08-30T07:22:29.623Z,18.10
2018-08-30T07:24:57.243Z,19.47
2018-08-30T07:27:24.951Z,19.63
2018-08-30T07:29:52.981Z,19.70
2018-08-30T07:32:21.272Z,19.47
2018-08-30T07:34:48.899Z,19.90
2018-08-30T07:37:16.400Z,19.33
2018-08-30T07:39:44.006Z,19.10
2018-08-30T07:42:11.629Z,18.60
2018-08-30T07:44:39.230Z,19.83
2018-08-30T07:47:06.980Z,19.13
2018-08-30T07:49:34.739Z,19.07
2018-08-30T07:52:02.911Z,18.80
2018-08-30T07:54:30.528Z,19.17
2018-08-30T07:56:58.155Z,18.27
2018-08-30T07:59:25.853Z,18.83
2018-08-30T08:01:53.652Z,19.13
2018-08-30T08:04:21.480Z,18.00
2018-08-30T08:06:49.035Z,18.63
2018-08-30T08:09:16.604Z,17.60
2018-08-30T08:11:44.270Z,18.13
2018-08-30T08:14:11.813Z,17.73
2018-08-30T08:16:39.405Z,18.67
2018-08-30T08:19:07.063Z,19.30
2018-08-30T08:21:34.905Z,19.77
2018-08-30T08:24:03.200Z,17.70
2018-08-30T08:26:30.691Z,18.37
2018-08-30T08:28:59.163Z,17.87
2018-08-30T08:31:27.376Z,18.40
2018-08-30T08:33:55.069Z,17.43
2018-08-30T08:36:22.554Z,17.70
2018-08-30T08:38:50.184Z,17.63
2018-08-30T08:41:17.712Z,17.83
2018-08-30T08:43:45.228Z,17.17
2018-08-30T08:46:12.754Z,16.90
2018-08-30T08:48:40.459Z,16.63
2018-08-30T08:51:08.130Z,15.77
2018-08-30T08:53:36.189Z,15.60
2018-08-30T08:56:03.756Z,15.17
2018-08-30T08:58:31.269Z,15.70
2018-08-30T09:00:58.947Z,14.33
2018-08-30T09:03:26.725Z,15.30
2018-08-30T09:05:54.607Z,15.97
2018-08-30T09:08:22.293Z,15.80
2018-08-30T09:10:49.967Z,15.77
2018-08-30T09:13:18.317Z,17.40
2018-08-30T09:15:46.119Z,16.00
2018-08-30T09:18:13.713Z,16.47
2018-08-30T09:20:41.724Z,16.40
2018-08-30T09:23:09.448Z,18.13
2018-08-30T09:25:37.012Z,18.17
2018-08-30T09:28:04.864Z,17.97
2018-08-30T09:30:33.442Z,19.03
2018-08-30T09:33:01.458Z,18.43
2018-08-30T09:35:29.108Z,19.57
2018-08-30T09:37:57.347Z,19.33
2018-08-30T09:40:25.184Z,19.50
2018-08-30T09:42:52.919Z,18.73
2018-08-30T09:45:20.670Z,18.07
2018-08-30T09:47:48.393Z,19.10
2018-08-30T09:50:16.111Z,19.77
2018-08-30T09:52:44.293Z,19.60
2018-08-30T09:55:12.584Z,19.47
2018-08-30T09:57:40.581Z,18.70
2018-08-30T10:00:12.881Z,20.70
2018-08-30T10:02:46.418Z,20.30
2018-08-30T10:05:14.050Z,19.20
2018-08-30T10:07:41.545Z,20.67
2018-08-30T10:10:09.325Z,17.47
2018-08-30T10:12:37.057Z,18.27
2018-08-30T10:15:05.763Z,18.93
2018-08-30T10:17:33.348Z,18.43
2018-08-30T10:20:01.018Z,18.43
2018-08-30T10:22:28.526Z,17.73
2018-08-30T10:24:56.700Z,17.13
2018-08-30T10:27:24.215Z,17.37
2018-08-30T10:29:51.918Z,17.93
2018-08-30T10:32:19.671Z,18.27
2018-08-30T10:34:47.919Z,18.47
2018-08-30T10:37:15.500Z,19.17
2018-08-30T10:39:43.328Z,18.37
2018-08-30T10:42:10.789Z,18.83
2018-08-30T10:44:38.547Z,18.13
2018-08-30T10:47:06.251Z,18.63
2018-08-30T10:49:34.228Z,19.33
2018-08-30T10:52:01.861Z,17.83
2018-08-30T10:54:29.544Z,18.90
2018-08-30T10:56:57.193Z,17.27
2018-08-30T10:59:24.765Z,16.33
2018-08-30T11:01:52.481Z,18.23
2018-08-30T11:04:20.211Z,18.40
2018-08-30T11:06:48.042Z,18.13
2018-08-30T11:09:15.662Z,18.03
2018-08-30T11:11:43.701Z,18.17
2018-08-30T11:14:11.834Z,16.97
2018-08-30T11:16:39.560Z,16.90
2018-08-30T11:19:07.303Z,16.80
2018-08-30T11:21:34.932Z,17.73
2018-08-30T11:24:02.802Z,17.87
2018-08-30T11:26:32.285Z,16.90
2018-08-30T11:29:00.038Z,16.47
2018-08-30T11:31:27.926Z,16.50
2018-08-30T11:33:55.529Z,18.27
2018-08-30T11:36:23.491Z,16.53
2018-08-30T11:38:51.771Z,16.83
2018-08-30T11:41:20.109Z,15.83
2018-08-30T11:43:48.291Z,15.83
2018-08-30T11:46:16.517Z,15.87
2018-08-30T11:48:45.255Z,14.70
2018-08-30T11:51:12.976Z,13.70
2018-08-30T11:53:41.925Z,14.97
2018-08-30T11:56:10.891Z,14.50
2018-08-30T11:58:38.739Z,13.77
2018-08-30T12:01:06.438Z,14.17
2018-08-30T12:03:34.890Z,13.27
2018-08-30T12:06:03.584Z,12.83
2018-08-30T12:08:31.575Z,13.40
2018-08-30T12:11:00.672Z,13.10
2018-08-30T12:13:28.478Z,12.53
2018-08-30T12:15:56.713Z,12.03
2018-08-30T12:18:25.599Z,12.30
2018-08-30T12:20:53.536Z,11.73
2018-08-30T12:23:21.899Z,11.43
2018-08-30T12:25:50.554Z,10.87
2018-08-30T12:28:18.752Z,10.93
2018-08-30T12:33:41.986Z,12.07
2018-08-30T12:36:10.737Z,12.50
2018-08-30T12:38:38.604Z,11.97
2018-08-30T12:41:06.517Z,11.33
2018-08-30T12:43:34.619Z,12.07
2018-08-30T12:46:03.588Z,12.17
2018-08-30T12:48:31.799Z,11.63
2018-08-30T12:51:01.503Z,11.60
2018-08-30T12:53:30.066Z,9.90
2018-08-30T12:55:58.402Z,9.60
2018-08-30T12:58:31.025Z,8.77
2018-08-30T13:01:01.770Z,8.00
2018-08-30T13:03:40.898Z,7.40
2018-08-30T13:06:13.432Z,8.18
2018-08-30T13:08:41.840Z,6.77
2018-08-30T13:11:13.858Z,7.17
2018-08-30T13:13:47.150Z,7.63
2018-08-30T13:16:28.308Z,7.10
2018-08-30T13:18:56.630Z,6.10
2018-08-30T13:21:25.719Z,5.70
2018-08-30T13:23:55.322Z,5.60
2018-08-30T13:26:34.664Z,4.83
2018-08-30T13:29:26.311Z,5.17
2018-08-30T13:31:54.392Z,4.87
2018-08-30T13:37:34.543Z,4.63
2018-08-30T13:40:03.057Z,5.10
2018-08-30T13:42:32.952Z,4.87
2018-08-30T13:45:01.542Z,3.60
2018-08-30T13:47:30.126Z,4.40
2018-08-30T13:49:59.012Z,3.97
2018-08-30T13:52:27.484Z,3.93
2018-08-30T22:46:40.136Z,2.97
2018-08-30T22:49:07.850Z,2.20
2018-08-30T22:51:35.559Z,2.00
2018-08-30T22:54:03.309Z,2.93
2018-08-30T22:56:31.651Z,2.20
2018-08-30T22:58:59.233Z,2.90
2018-08-30T23:01:26.968Z,2.47
2018-08-30T23:03:55.204Z,2.10
2018-08-30T23:06:22.793Z,1.80
2018-08-30T23:08:50.438Z,2.53
2018-08-30T23:11:18.126Z,2.10
2018-08-30T23:13:45.641Z,2.53
2018-08-30T23:16:13.248Z,2.10
2018-08-30T23:18:40.853Z,2.10
2018-08-30T23:21:09.113Z,2.73
2018-08-30T23:23:36.807Z,2.63
2018-08-30T23:26:04.519Z,2.33
2018-08-30T23:28:32.148Z,2.57
2018-08-30T23:31:00.058Z,1.87
2018-08-30T23:33:27.641Z,2.40
2018-08-30T23:35:55.348Z,2.23
2018-08-30T23:38:23.588Z,2.17
2018-08-30T23:40:51.358Z,2.37
2018-08-30T23:43:18.923Z,2.37
2018-08-30T23:45:46.548Z,2.67
2018-08-30T23:48:14.970Z,1.90
2018-08-30T23:50:42.568Z,2.20
2018-08-30T23:53:10.264Z,2.30
2018-08-30T23:55:38.399Z,2.30
2018-08-30T23:58:17.644Z,2.20
